sensor_id;sensor_type;location;lat;lon;timestamp;P1;durP1;ratioP1;P2;durP2;ratioP2
55112;SDS011;41006;50.920;3.456;2022-12-13T00:00:00;48.53;;;37.75;;
55112;SDS011;41006;50.920;3.456;2022-12-13T00:00:30;46.00;;;37.05;;
55112;SDS011;41006;50.920;3.456;2022-12-13T00:01:08;49.00;;;35.65;;
55112;SDS011;41006;50.920;3.456;2022-12-13T00:01:41;51.25;;;37.97;;
55112;SDS011;41006;50.920;3.456;2022-12-13T00:02:11;48.40;;;36.75;;
55112;SDS011;41006;50.920;3.456;2022-12-13T00:02:44;50.15;;;37.25;;
55112;SDS011;41006;50.920;3.456;2022-12-13T00:03:17;50.45;;;35.78;;
55112;SDS011;41006;50.920;3.456;2022-12-13T00:03:51;46.22;;;35.45;;
55112;SDS011;41006;50.920;3.456;2022-12-13T00:04:26;52.28;;;37.28;;
55112;SDS011;41006;50.920;3.456;2022-12-13T00:04:56;42.95;;;35.00;;
55112;SDS011;41006;50.920;3.456;2022-12-13T00:05:27;53.58;;;36.38;;
55112;SDS011;41006;50.920;3.456;2022-12-13T00:05:57;47.33;;;35.35;;
55112;SDS011;41006;50.920;3.456;2022-12-13T00:06:31;46.92;;;35.30;;
55112;SDS011;41006;50.920;3.456;2022-12-13T00:07:03;53.10;;;37.40;;
55112;SDS011;41006;50.920;3.456;2022-12-13T00:07:36;47.55;;;34.60;;
55112;SDS011;41006;50.920;3.456;2022-12-13T00:08:07;50.85;;;37.05;;
55112;SDS011;41006;50.920;3.456;2022-12-13T00:08:40;48.35;;;35.42;;
55112;SDS011;41006;50.920;3.456;2022-12-13T00:09:14;43.33;;;35.60;;
55112;SDS011;41006;50.920;3.456;2022-12-13T00:09:46;46.78;;;35.60;;
55112;SDS011;41006;50.920;3.456;2022-12-13T00:10:17;54.55;;;36.78;;
55112;SDS011;41006;50.920;3.456;2022-12-13T00:10:57;45.47;;;35.00;;
55112;SDS011;41006;50.920;3.456;2022-12-13T00:11:32;46.60;;;34.92;;
55112;SDS011;41006;50.920;3.456;2022-12-13T00:12:05;45.42;;;35.10;;
55112;SDS011;41006;50.920;3.456;2022-12-13T00:12:35;46.28;;;35.55;;
55112;SDS011;41006;50.920;3.456;2022-12-13T00:13:08;50.78;;;36.75;;
55112;SDS011;41006;50.920;3.456;2022-12-13T00:13:41;50.47;;;37.05;;
55112;SDS011;41006;50.920;3.456;2022-12-13T00:14:13;49.47;;;36.58;;
55112;SDS011;41006;50.920;3.456;2022-12-13T00:14:48;50.83;;;35.33;;
55112;SDS011;41006;50.920;3.456;2022-12-13T00:15:20;54.63;;;36.17;;
55112;SDS011;41006;50.920;3.456;2022-12-13T00:15:56;50.05;;;36.83;;
55112;SDS011;41006;50.920;3.456;2022-12-13T00:16:29;43.72;;;35.00;;
55112;SDS011;41006;50.920;3.456;2022-12-13T00:17:00;52.28;;;34.97;;
55112;SDS011;41006;50.920;3.456;2022-12-13T00:17:31;44.65;;;33.78;;
55112;SDS011;41006;50.920;3.456;2022-12-13T00:18:02;52.58;;;35.67;;
55112;SDS011;41006;50.920;3.456;2022-12-13T00:18:35;43.05;;;31.63;;
55112;SDS011;41006;50.920;3.456;2022-12-13T00:19:09;46.67;;;34.05;;
55112;SDS011;41006;50.920;3.456;2022-12-13T00:19:43;46.15;;;34.63;;
55112;SDS011;41006;50.920;3.456;2022-12-13T00:20:18;47.92;;;34.75;;
55112;SDS011;41006;50.920;3.456;2022-12-13T00:20:50;40.85;;;32.83;;
55112;SDS011;41006;50.920;3.456;2022-12-13T00:21:22;47.35;;;32.03;;
55112;SDS011;41006;50.920;3.456;2022-12-13T00:21:59;48.00;;;31.35;;
55112;SDS011;41006;50.920;3.456;2022-12-13T00:22:32;46.90;;;31.52;;
55112;SDS011;41006;50.920;3.456;2022-12-13T00:23:05;45.15;;;31.08;;
55112;SDS011;41006;50.920;3.456;2022-12-13T00:23:42;45.60;;;30.70;;
55112;SDS011;41006;50.920;3.456;2022-12-13T00:24:16;46.22;;;30.88;;
55112;SDS011;41006;50.920;3.456;2022-12-13T00:24:49;48.35;;;30.50;;
55112;SDS011;41006;50.920;3.456;2022-12-13T00:25:19;45.05;;;30.38;;
55112;SDS011;41006;50.920;3.456;2022-12-13T00:25:54;46.08;;;29.15;;
55112;SDS011;41006;50.920;3.456;2022-12-13T00:26:25;47.78;;;30.08;;
55112;SDS011;41006;50.920;3.456;2022-12-13T00:27:00;53.33;;;29.60;;
55112;SDS011;41006;50.920;3.456;2022-12-13T00:27:33;52.75;;;30.35;;
55112;SDS011;41006;50.920;3.456;2022-12-13T00:28:06;42.17;;;30.70;;
55112;SDS011;41006;50.920;3.456;2022-12-13T00:28:37;49.63;;;30.25;;
55112;SDS011;41006;50.920;3.456;2022-12-13T00:29:09;54.83;;;31.67;;
55112;SDS011;41006;50.920;3.456;2022-12-13T00:29:41;47.97;;;30.77;;
55112;SDS011;41006;50.920;3.456;2022-12-13T00:30:13;47.97;;;30.95;;
55112;SDS011;41006;50.920;3.456;2022-12-13T00:30:46;45.65;;;30.83;;
55112;SDS011;41006;50.920;3.456;2022-12-13T00:31:16;42.85;;;29.75;;
55112;SDS011;41006;50.920;3.456;2022-12-13T00:31:50;45.45;;;29.17;;
55112;SDS011;41006;50.920;3.456;2022-12-13T00:32:20;43.17;;;29.63;;
55112;SDS011;41006;50.920;3.456;2022-12-13T00:32:51;42.67;;;29.80;;
55112;SDS011;41006;50.920;3.456;2022-12-13T00:33:21;50.85;;;30.75;;
55112;SDS011;41006;50.920;3.456;2022-12-13T00:33:54;46.58;;;29.55;;
55112;SDS011;41006;50.920;3.456;2022-12-13T00:34:27;44.38;;;29.77;;
55112;SDS011;41006;50.920;3.456;2022-12-13T00:34:58;45.13;;;29.13;;
55112;SDS011;41006;50.920;3.456;2022-12-13T00:35:31;47.63;;;28.95;;
55112;SDS011;41006;50.920;3.456;2022-12-13T00:36:07;45.45;;;29.65;;
55112;SDS011;41006;50.920;3.456;2022-12-13T00:36:38;49.08;;;30.25;;
55112;SDS011;41006;50.920;3.456;2022-12-13T00:37:09;50.17;;;29.00;;
55112;SDS011;41006;50.920;3.456;2022-12-13T00:37:39;49.35;;;28.98;;
55112;SDS011;41006;50.920;3.456;2022-12-13T00:38:09;45.72;;;30.55;;
55112;SDS011;41006;50.920;3.456;2022-12-13T00:38:40;39.75;;;28.17;;
55112;SDS011;41006;50.920;3.456;2022-12-13T00:39:13;45.22;;;29.98;;
55112;SDS011;41006;50.920;3.456;2022-12-13T00:39:48;51.28;;;29.50;;
55112;SDS011;41006;50.920;3.456;2022-12-13T00:40:18;44.80;;;30.63;;
55112;SDS011;41006;50.920;3.456;2022-12-13T00:40:51;45.42;;;29.20;;
55112;SDS011;41006;50.920;3.456;2022-12-13T00:41:25;46.10;;;30.48;;
55112;SDS011;41006;50.920;3.456;2022-12-13T00:42:03;47.25;;;30.30;;
55112;SDS011;41006;50.920;3.456;2022-12-13T00:42:33;45.65;;;30.48;;
55112;SDS011;41006;50.920;3.456;2022-12-13T00:43:06;43.20;;;27.42;;
55112;SDS011;41006;50.920;3.456;2022-12-13T00:43:36;45.95;;;29.02;;
55112;SDS011;41006;50.920;3.456;2022-12-13T00:44:12;48.30;;;30.63;;
55112;SDS011;41006;50.920;3.456;2022-12-13T00:44:48;42.42;;;28.13;;
55112;SDS011;41006;50.920;3.456;2022-12-13T00:45:21;50.97;;;30.30;;
55112;SDS011;41006;50.920;3.456;2022-12-13T00:45:52;50.65;;;29.17;;
55112;SDS011;41006;50.920;3.456;2022-12-13T00:46:24;43.22;;;28.33;;
55112;SDS011;41006;50.920;3.456;2022-12-13T00:46:57;49.90;;;30.02;;
55112;SDS011;41006;50.920;3.456;2022-12-13T00:47:30;54.00;;;33.30;;
55112;SDS011;41006;50.920;3.456;2022-12-13T00:48:01;52.15;;;30.63;;
55112;SDS011;41006;50.920;3.456;2022-12-13T00:48:31;46.88;;;30.40;;
55112;SDS011;41006;50.920;3.456;2022-12-13T00:49:01;45.65;;;29.77;;
55112;SDS011;41006;50.920;3.456;2022-12-13T00:49:32;45.72;;;30.67;;
55112;SDS011;41006;50.920;3.456;2022-12-13T00:50:05;42.20;;;29.25;;
55112;SDS011;41006;50.920;3.456;2022-12-13T00:50:36;45.25;;;30.30;;
55112;SDS011;41006;50.920;3.456;2022-12-13T00:51:07;47.78;;;29.77;;
55112;SDS011;41006;50.920;3.456;2022-12-13T00:51:41;40.78;;;28.92;;
55112;SDS011;41006;50.920;3.456;2022-12-13T00:52:14;48.95;;;30.75;;
55112;SDS011;41006;50.920;3.456;2022-12-13T00:52:45;42.53;;;28.25;;
55112;SDS011;41006;50.920;3.456;2022-12-13T00:53:17;44.42;;;29.00;;
55112;SDS011;41006;50.920;3.456;2022-12-13T00:53:48;43.83;;;29.88;;
55112;SDS011;41006;50.920;3.456;2022-12-13T00:54:21;48.83;;;30.83;;
55112;SDS011;41006;50.920;3.456;2022-12-13T00:54:51;44.25;;;29.65;;
55112;SDS011;41006;50.920;3.456;2022-12-13T00:55:21;44.45;;;30.02;;
55112;SDS011;41006;50.920;3.456;2022-12-13T00:55:52;40.08;;;28.88;;
55112;SDS011;41006;50.920;3.456;2022-12-13T00:56:23;46.30;;;29.90;;
55112;SDS011;41006;50.920;3.456;2022-12-13T00:56:56;46.55;;;30.25;;
55112;SDS011;41006;50.920;3.456;2022-12-13T00:57:26;44.38;;;29.65;;
55112;SDS011;41006;50.920;3.456;2022-12-13T00:57:59;48.38;;;29.60;;
55112;SDS011;41006;50.920;3.456;2022-12-13T00:58:30;45.50;;;29.90;;
55112;SDS011;41006;50.920;3.456;2022-12-13T00:59:08;48.97;;;30.45;;
55112;SDS011;41006;50.920;3.456;2022-12-13T00:59:47;44.53;;;28.63;;
55112;SDS011;41006;50.920;3.456;2022-12-13T01:00:21;43.03;;;28.73;;
55112;SDS011;41006;50.920;3.456;2022-12-13T01:01:01;49.13;;;30.55;;
55112;SDS011;41006;50.920;3.456;2022-12-13T01:01:37;45.10;;;29.23;;
55112;SDS011;41006;50.920;3.456;2022-12-13T01:02:12;41.25;;;29.45;;
55112;SDS011;41006;50.920;3.456;2022-12-13T01:02:43;47.25;;;28.38;;
55112;SDS011;41006;50.920;3.456;2022-12-13T01:03:18;42.15;;;30.15;;
55112;SDS011;41006;50.920;3.456;2022-12-13T01:03:55;41.03;;;28.50;;
55112;SDS011;41006;50.920;3.456;2022-12-13T01:04:29;44.10;;;28.73;;
55112;SDS011;41006;50.920;3.456;2022-12-13T01:05:02;38.53;;;27.95;;
55112;SDS011;41006;50.920;3.456;2022-12-13T01:05:33;41.10;;;27.92;;
55112;SDS011;41006;50.920;3.456;2022-12-13T01:06:25;47.80;;;27.95;;
55112;SDS011;41006;50.920;3.456;2022-12-13T01:07:00;46.40;;;28.08;;
55112;SDS011;41006;50.920;3.456;2022-12-13T01:07:30;57.30;;;30.67;;
55112;SDS011;41006;50.920;3.456;2022-12-13T01:08:01;46.40;;;28.52;;
55112;SDS011;41006;50.920;3.456;2022-12-13T01:08:33;43.63;;;27.50;;
55112;SDS011;41006;50.920;3.456;2022-12-13T01:09:05;40.78;;;28.05;;
55112;SDS011;41006;50.920;3.456;2022-12-13T01:09:41;44.30;;;27.60;;
55112;SDS011;41006;50.920;3.456;2022-12-13T01:10:12;41.75;;;28.35;;
55112;SDS011;41006;50.920;3.456;2022-12-13T01:10:43;50.88;;;29.08;;
55112;SDS011;41006;50.920;3.456;2022-12-13T01:11:15;47.17;;;27.92;;
55112;SDS011;41006;50.920;3.456;2022-12-13T01:11:49;42.13;;;27.52;;
55112;SDS011;41006;50.920;3.456;2022-12-13T01:12:20;39.30;;;27.02;;
55112;SDS011;41006;50.920;3.456;2022-12-13T01:12:50;43.78;;;28.15;;
55112;SDS011;41006;50.920;3.456;2022-12-13T01:13:24;45.20;;;27.90;;
55112;SDS011;41006;50.920;3.456;2022-12-13T01:13:56;46.00;;;28.48;;
55112;SDS011;41006;50.920;3.456;2022-12-13T01:14:30;43.60;;;27.70;;
55112;SDS011;41006;50.920;3.456;2022-12-13T01:15:03;40.47;;;26.52;;
55112;SDS011;41006;50.920;3.456;2022-12-13T01:15:39;39.83;;;27.38;;
55112;SDS011;41006;50.920;3.456;2022-12-13T01:16:11;45.47;;;26.95;;
55112;SDS011;41006;50.920;3.456;2022-12-13T01:16:45;43.47;;;28.35;;
55112;SDS011;41006;50.920;3.456;2022-12-13T01:17:15;44.80;;;28.10;;
55112;SDS011;41006;50.920;3.456;2022-12-13T01:17:48;37.38;;;26.52;;
55112;SDS011;41006;50.920;3.456;2022-12-13T01:18:18;42.97;;;27.42;;
55112;SDS011;41006;50.920;3.456;2022-12-13T01:18:55;43.30;;;26.85;;
55112;SDS011;41006;50.920;3.456;2022-12-13T01:19:30;40.80;;;27.98;;
55112;SDS011;41006;50.920;3.456;2022-12-13T01:20:03;44.78;;;28.10;;
55112;SDS011;41006;50.920;3.456;2022-12-13T01:20:35;49.15;;;27.48;;
55112;SDS011;41006;50.920;3.456;2022-12-13T01:21:07;38.28;;;26.90;;
55112;SDS011;41006;50.920;3.456;2022-12-13T01:21:47;42.42;;;26.65;;
55112;SDS011;41006;50.920;3.456;2022-12-13T01:22:17;40.55;;;27.20;;
55112;SDS011;41006;50.920;3.456;2022-12-13T01:22:48;42.25;;;26.42;;
55112;SDS011;41006;50.920;3.456;2022-12-13T01:23:21;43.70;;;27.65;;
55112;SDS011;41006;50.920;3.456;2022-12-13T01:23:51;42.97;;;26.88;;
55112;SDS011;41006;50.920;3.456;2022-12-13T01:24:26;42.90;;;25.77;;
55112;SDS011;41006;50.920;3.456;2022-12-13T01:24:57;41.42;;;26.25;;
55112;SDS011;41006;50.920;3.456;2022-12-13T01:25:29;40.50;;;26.23;;
55112;SDS011;41006;50.920;3.456;2022-12-13T01:26:05;47.75;;;28.02;;
55112;SDS011;41006;50.920;3.456;2022-12-13T01:26:39;42.90;;;25.80;;
55112;SDS011;41006;50.920;3.456;2022-12-13T01:27:09;44.00;;;27.10;;
55112;SDS011;41006;50.920;3.456;2022-12-13T01:27:40;38.22;;;25.65;;
55112;SDS011;41006;50.920;3.456;2022-12-13T01:28:15;43.20;;;25.73;;
55112;SDS011;41006;50.920;3.456;2022-12-13T01:28:47;39.33;;;26.45;;
55112;SDS011;41006;50.920;3.456;2022-12-13T01:29:18;39.47;;;26.33;;
55112;SDS011;41006;50.920;3.456;2022-12-13T01:29:50;45.88;;;27.08;;
55112;SDS011;41006;50.920;3.456;2022-12-13T01:30:22;45.05;;;26.15;;
55112;SDS011;41006;50.920;3.456;2022-12-13T01:30:57;39.00;;;25.77;;
55112;SDS011;41006;50.920;3.456;2022-12-13T01:31:29;49.72;;;26.58;;
55112;SDS011;41006;50.920;3.456;2022-12-13T01:32:00;43.03;;;26.05;;
55112;SDS011;41006;50.920;3.456;2022-12-13T01:32:31;36.85;;;25.60;;
55112;SDS011;41006;50.920;3.456;2022-12-13T01:33:01;40.33;;;25.15;;
55112;SDS011;41006;50.920;3.456;2022-12-13T01:33:32;48.88;;;27.42;;
55112;SDS011;41006;50.920;3.456;2022-12-13T01:34:05;39.65;;;24.98;;
55112;SDS011;41006;50.920;3.456;2022-12-13T01:34:39;41.53;;;26.55;;
55112;SDS011;41006;50.920;3.456;2022-12-13T01:35:11;44.60;;;25.92;;
55112;SDS011;41006;50.920;3.456;2022-12-13T01:35:42;43.97;;;26.70;;
55112;SDS011;41006;50.920;3.456;2022-12-13T01:36:14;40.58;;;26.38;;
55112;SDS011;41006;50.920;3.456;2022-12-13T01:36:46;40.58;;;27.55;;
55112;SDS011;41006;50.920;3.456;2022-12-13T01:37:18;40.10;;;25.05;;
55112;SDS011;41006;50.920;3.456;2022-12-13T01:37:49;39.75;;;25.52;;
55112;SDS011;41006;50.920;3.456;2022-12-13T01:38:24;44.05;;;26.08;;
55112;SDS011;41006;50.920;3.456;2022-12-13T01:38:55;44.80;;;25.73;;
55112;SDS011;41006;50.920;3.456;2022-12-13T01:39:26;45.53;;;25.40;;
55112;SDS011;41006;50.920;3.456;2022-12-13T01:39:59;43.22;;;26.05;;
55112;SDS011;41006;50.920;3.456;2022-12-13T01:40:30;37.80;;;25.98;;
55112;SDS011;41006;50.920;3.456;2022-12-13T01:41:00;39.55;;;24.75;;
55112;SDS011;41006;50.920;3.456;2022-12-13T01:41:33;40.63;;;26.55;;
55112;SDS011;41006;50.920;3.456;2022-12-13T01:42:09;38.72;;;25.98;;
55112;SDS011;41006;50.920;3.456;2022-12-13T01:42:43;43.13;;;26.60;;
55112;SDS011;41006;50.920;3.456;2022-12-13T01:43:13;43.10;;;26.35;;
55112;SDS011;41006;50.920;3.456;2022-12-13T01:45:27;40.38;;;27.10;;
55112;SDS011;41006;50.920;3.456;2022-12-13T01:46:01;39.80;;;26.02;;
55112;SDS011;41006;50.920;3.456;2022-12-13T01:46:32;43.60;;;26.33;;
55112;SDS011;41006;50.920;3.456;2022-12-13T01:47:06;43.95;;;26.95;;
55112;SDS011;41006;50.920;3.456;2022-12-13T01:48:13;44.30;;;26.30;;
55112;SDS011;41006;50.920;3.456;2022-12-13T01:49:30;38.10;;;26.08;;
55112;SDS011;41006;50.920;3.456;2022-12-13T01:50:02;46.25;;;27.15;;
55112;SDS011;41006;50.920;3.456;2022-12-13T01:51:14;36.35;;;25.75;;
55112;SDS011;41006;50.920;3.456;2022-12-13T01:51:50;39.03;;;25.83;;
55112;SDS011;41006;50.920;3.456;2022-12-13T01:52:26;48.15;;;28.85;;
55112;SDS011;41006;50.920;3.456;2022-12-13T01:53:03;46.00;;;28.13;;
55112;SDS011;41006;50.920;3.456;2022-12-13T01:53:37;40.90;;;27.02;;
55112;SDS011;41006;50.920;3.456;2022-12-13T01:54:12;40.13;;;27.60;;
55112;SDS011;41006;50.920;3.456;2022-12-13T01:54:47;42.40;;;26.65;;
55112;SDS011;41006;50.920;3.456;2022-12-13T01:55:21;44.42;;;28.35;;
55112;SDS011;41006;50.920;3.456;2022-12-13T01:56:06;42.20;;;27.75;;
55112;SDS011;41006;50.920;3.456;2022-12-13T01:56:46;44.92;;;27.88;;
55112;SDS011;41006;50.920;3.456;2022-12-13T01:57:22;42.33;;;28.65;;
55112;SDS011;41006;50.920;3.456;2022-12-13T01:57:57;40.85;;;26.88;;
55112;SDS011;41006;50.920;3.456;2022-12-13T01:58:32;43.42;;;27.23;;
55112;SDS011;41006;50.920;3.456;2022-12-13T01:59:06;38.63;;;26.13;;
55112;SDS011;41006;50.920;3.456;2022-12-13T01:59:39;41.88;;;27.13;;
55112;SDS011;41006;50.920;3.456;2022-12-13T02:00:11;43.67;;;27.77;;
55112;SDS011;41006;50.920;3.456;2022-12-13T02:00:45;48.88;;;29.80;;
55112;SDS011;41006;50.920;3.456;2022-12-13T02:01:16;42.08;;;27.10;;
55112;SDS011;41006;50.920;3.456;2022-12-13T02:01:48;41.72;;;27.50;;
55112;SDS011;41006;50.920;3.456;2022-12-13T02:02:21;45.25;;;27.42;;
55112;SDS011;41006;50.920;3.456;2022-12-13T02:02:52;40.30;;;26.92;;
55112;SDS011;41006;50.920;3.456;2022-12-13T02:03:27;40.58;;;26.08;;
55112;SDS011;41006;50.920;3.456;2022-12-13T02:03:58;40.03;;;26.08;;
55112;SDS011;41006;50.920;3.456;2022-12-13T02:06:18;41.45;;;26.45;;
55112;SDS011;41006;50.920;3.456;2022-12-13T02:06:57;38.67;;;25.30;;
55112;SDS011;41006;50.920;3.456;2022-12-13T02:07:30;44.00;;;27.88;;
55112;SDS011;41006;50.920;3.456;2022-12-13T02:08:06;41.58;;;25.83;;
55112;SDS011;41006;50.920;3.456;2022-12-13T02:08:39;41.33;;;27.45;;
55112;SDS011;41006;50.920;3.456;2022-12-13T02:09:12;36.75;;;25.48;;
55112;SDS011;41006;50.920;3.456;2022-12-13T02:09:43;42.20;;;26.85;;
55112;SDS011;41006;50.920;3.456;2022-12-13T02:10:15;36.58;;;25.55;;
55112;SDS011;41006;50.920;3.456;2022-12-13T02:10:48;44.83;;;26.20;;
55112;SDS011;41006;50.920;3.456;2022-12-13T02:11:19;42.60;;;27.77;;
55112;SDS011;41006;50.920;3.456;2022-12-13T02:11:50;42.85;;;26.45;;
55112;SDS011;41006;50.920;3.456;2022-12-13T02:12:21;43.45;;;27.00;;
55112;SDS011;41006;50.920;3.456;2022-12-13T02:12:58;38.60;;;24.98;;
55112;SDS011;41006;50.920;3.456;2022-12-13T02:13:28;39.70;;;26.48;;
55112;SDS011;41006;50.920;3.456;2022-12-13T02:14:00;40.80;;;25.33;;
55112;SDS011;41006;50.920;3.456;2022-12-13T02:14:33;36.20;;;24.65;;
55112;SDS011;41006;50.920;3.456;2022-12-13T02:15:13;43.67;;;25.85;;
55112;SDS011;41006;50.920;3.456;2022-12-13T02:16:52;49.55;;;27.67;;
55112;SDS011;41006;50.920;3.456;2022-12-13T02:26:15;38.90;;;25.83;;
55112;SDS011;41006;50.920;3.456;2022-12-13T02:27:06;45.78;;;25.90;;
55112;SDS011;41006;50.920;3.456;2022-12-13T02:30:21;41.97;;;26.35;;
55112;SDS011;41006;50.920;3.456;2022-12-13T02:31:44;39.83;;;25.48;;
55112;SDS011;41006;50.920;3.456;2022-12-13T02:32:31;42.92;;;26.48;;
55112;SDS011;41006;50.920;3.456;2022-12-13T02:33:29;40.03;;;25.85;;
55112;SDS011;41006;50.920;3.456;2022-12-13T02:34:07;45.15;;;26.05;;
55112;SDS011;41006;50.920;3.456;2022-12-13T02:35:38;43.70;;;26.65;;
55112;SDS011;41006;50.920;3.456;2022-12-13T02:37:02;45.47;;;27.05;;
55112;SDS011;41006;50.920;3.456;2022-12-13T02:39:24;43.28;;;25.30;;
55112;SDS011;41006;50.920;3.456;2022-12-13T02:40:08;44.45;;;26.38;;
55112;SDS011;41006;50.920;3.456;2022-12-13T02:41:08;42.25;;;26.13;;
55112;SDS011;41006;50.920;3.456;2022-12-13T02:41:52;42.90;;;26.70;;
55112;SDS011;41006;50.920;3.456;2022-12-13T02:42:30;45.50;;;26.00;;
55112;SDS011;41006;50.920;3.456;2022-12-13T02:43:14;44.03;;;27.38;;
55112;SDS011;41006;50.920;3.456;2022-12-13T02:43:52;40.92;;;26.00;;
55112;SDS011;41006;50.920;3.456;2022-12-13T02:44:31;47.05;;;27.92;;
55112;SDS011;41006;50.920;3.456;2022-12-13T02:45:07;38.92;;;26.85;;
55112;SDS011;41006;50.920;3.456;2022-12-13T02:45:50;41.95;;;25.70;;
55112;SDS011;41006;50.920;3.456;2022-12-13T02:46:23;40.20;;;26.63;;
55112;SDS011;41006;50.920;3.456;2022-12-13T02:47:11;44.33;;;26.88;;
55112;SDS011;41006;50.920;3.456;2022-12-13T02:47:46;36.58;;;24.40;;
55112;SDS011;41006;50.920;3.456;2022-12-13T02:48:26;38.78;;;25.60;;
55112;SDS011;41006;50.920;3.456;2022-12-13T02:49:11;46.85;;;27.02;;
55112;SDS011;41006;50.920;3.456;2022-12-13T02:49:46;37.80;;;25.55;;
55112;SDS011;41006;50.920;3.456;2022-12-13T02:50:18;44.42;;;27.63;;
55112;SDS011;41006;50.920;3.456;2022-12-13T02:50:50;41.20;;;25.92;;
55112;SDS011;41006;50.920;3.456;2022-12-13T02:51:27;38.63;;;25.88;;
55112;SDS011;41006;50.920;3.456;2022-12-13T02:51:59;40.30;;;25.45;;
55112;SDS011;41006;50.920;3.456;2022-12-13T02:52:33;47.63;;;25.98;;
55112;SDS011;41006;50.920;3.456;2022-12-13T02:53:09;44.50;;;26.77;;
55112;SDS011;41006;50.920;3.456;2022-12-13T02:53:46;42.67;;;27.80;;
55112;SDS011;41006;50.920;3.456;2022-12-13T02:54:16;41.22;;;26.65;;
55112;SDS011;41006;50.920;3.456;2022-12-13T02:54:47;38.67;;;26.48;;
55112;SDS011;41006;50.920;3.456;2022-12-13T02:55:20;39.70;;;26.27;;
55112;SDS011;41006;50.920;3.456;2022-12-13T02:55:51;40.92;;;26.52;;
55112;SDS011;41006;50.920;3.456;2022-12-13T02:56:21;41.22;;;26.67;;
55112;SDS011;41006;50.920;3.456;2022-12-13T02:56:52;35.25;;;24.98;;
55112;SDS011;41006;50.920;3.456;2022-12-13T02:57:26;44.50;;;24.90;;
55112;SDS011;41006;50.920;3.456;2022-12-13T02:57:58;44.33;;;26.20;;
55112;SDS011;41006;50.920;3.456;2022-12-13T02:58:31;46.03;;;27.00;;
55112;SDS011;41006;50.920;3.456;2022-12-13T02:59:06;42.22;;;27.75;;
55112;SDS011;41006;50.920;3.456;2022-12-13T02:59:44;40.03;;;26.48;;
55112;SDS011;41006;50.920;3.456;2022-12-13T03:00:16;35.08;;;25.17;;
55112;SDS011;41006;50.920;3.456;2022-12-13T03:00:55;40.50;;;25.70;;
55112;SDS011;41006;50.920;3.456;2022-12-13T03:04:11;39.00;;;25.08;;
55112;SDS011;41006;50.920;3.456;2022-12-13T03:07:22;40.72;;;28.75;;
55112;SDS011;41006;50.920;3.456;2022-12-13T03:10:35;38.45;;;27.20;;
55112;SDS011;41006;50.920;3.456;2022-12-13T03:11:16;38.72;;;26.35;;
55112;SDS011;41006;50.920;3.456;2022-12-13T03:12:44;40.88;;;25.77;;
55112;SDS011;41006;50.920;3.456;2022-12-13T03:13:58;43.75;;;26.90;;
55112;SDS011;41006;50.920;3.456;2022-12-13T03:14:38;42.83;;;27.23;;
55112;SDS011;41006;50.920;3.456;2022-12-13T03:15:57;37.42;;;23.83;;
55112;SDS011;41006;50.920;3.456;2022-12-13T03:16:33;43.38;;;28.00;;
55112;SDS011;41006;50.920;3.456;2022-12-13T03:17:09;50.28;;;26.35;;
55112;SDS011;41006;50.920;3.456;2022-12-13T03:18:06;36.22;;;24.98;;
55112;SDS011;41006;50.920;3.456;2022-12-13T03:18:49;37.30;;;24.92;;
55112;SDS011;41006;50.920;3.456;2022-12-13T03:19:22;46.50;;;26.33;;
55112;SDS011;41006;50.920;3.456;2022-12-13T03:19:55;42.50;;;25.58;;
55112;SDS011;41006;50.920;3.456;2022-12-13T03:20:26;39.88;;;26.23;;
55112;SDS011;41006;50.920;3.456;2022-12-13T03:20:59;42.33;;;26.75;;
55112;SDS011;41006;50.920;3.456;2022-12-13T03:21:43;45.47;;;25.40;;
55112;SDS011;41006;50.920;3.456;2022-12-13T03:22:16;42.88;;;26.10;;
55112;SDS011;41006;50.920;3.456;2022-12-13T03:22:47;42.72;;;26.38;;
55112;SDS011;41006;50.920;3.456;2022-12-13T03:23:18;43.22;;;26.90;;
55112;SDS011;41006;50.920;3.456;2022-12-13T03:23:49;40.20;;;25.95;;
55112;SDS011;41006;50.920;3.456;2022-12-13T03:24:23;40.97;;;24.20;;
55112;SDS011;41006;50.920;3.456;2022-12-13T03:24:53;43.70;;;24.52;;
55112;SDS011;41006;50.920;3.456;2022-12-13T03:25:29;40.25;;;25.92;;
55112;SDS011;41006;50.920;3.456;2022-12-13T03:26:07;39.35;;;24.63;;
55112;SDS011;41006;50.920;3.456;2022-12-13T03:26:42;39.85;;;25.40;;
55112;SDS011;41006;50.920;3.456;2022-12-13T03:27:16;40.45;;;24.48;;
55112;SDS011;41006;50.920;3.456;2022-12-13T03:27:46;40.58;;;25.88;;
55112;SDS011;41006;50.920;3.456;2022-12-13T03:28:19;37.45;;;25.98;;
55112;SDS011;41006;50.920;3.456;2022-12-13T03:28:52;36.28;;;24.33;;
55112;SDS011;41006;50.920;3.456;2022-12-13T03:29:26;35.50;;;25.60;;
55112;SDS011;41006;50.920;3.456;2022-12-13T03:29:56;41.47;;;25.15;;
55112;SDS011;41006;50.920;3.456;2022-12-13T03:30:29;34.72;;;24.20;;
55112;SDS011;41006;50.920;3.456;2022-12-13T03:31:03;40.42;;;24.38;;
55112;SDS011;41006;50.920;3.456;2022-12-13T03:31:34;36.83;;;23.48;;
55112;SDS011;41006;50.920;3.456;2022-12-13T03:32:07;42.13;;;26.38;;
55112;SDS011;41006;50.920;3.456;2022-12-13T03:32:42;37.67;;;23.33;;
55112;SDS011;41006;50.920;3.456;2022-12-13T03:33:13;36.90;;;24.27;;
55112;SDS011;41006;50.920;3.456;2022-12-13T03:33:46;34.63;;;22.83;;
55112;SDS011;41006;50.920;3.456;2022-12-13T03:34:19;34.55;;;23.70;;
55112;SDS011;41006;50.920;3.456;2022-12-13T03:34:49;36.83;;;23.83;;
55112;SDS011;41006;50.920;3.456;2022-12-13T03:35:23;39.83;;;24.20;;
55112;SDS011;41006;50.920;3.456;2022-12-13T03:35:58;39.72;;;24.05;;
55112;SDS011;41006;50.920;3.456;2022-12-13T03:36:30;38.00;;;24.42;;
55112;SDS011;41006;50.920;3.456;2022-12-13T03:37:08;37.58;;;22.85;;
55112;SDS011;41006;50.920;3.456;2022-12-13T03:37:38;35.60;;;23.55;;
55112;SDS011;41006;50.920;3.456;2022-12-13T03:38:12;38.92;;;24.42;;
55112;SDS011;41006;50.920;3.456;2022-12-13T03:38:44;43.45;;;24.65;;
55112;SDS011;41006;50.920;3.456;2022-12-13T03:39:16;38.17;;;24.42;;
55112;SDS011;41006;50.920;3.456;2022-12-13T03:39:47;38.80;;;24.38;;
55112;SDS011;41006;50.920;3.456;2022-12-13T03:40:18;33.88;;;23.67;;
55112;SDS011;41006;50.920;3.456;2022-12-13T03:40:56;38.42;;;25.30;;
55112;SDS011;41006;50.920;3.456;2022-12-13T03:41:29;40.70;;;23.20;;
55112;SDS011;41006;50.920;3.456;2022-12-13T03:42:01;35.65;;;23.42;;
55112;SDS011;41006;50.920;3.456;2022-12-13T03:42:31;37.17;;;23.60;;
55112;SDS011;41006;50.920;3.456;2022-12-13T03:43:04;43.33;;;24.85;;
55112;SDS011;41006;50.920;3.456;2022-12-13T03:43:35;37.75;;;23.58;;
55112;SDS011;41006;50.920;3.456;2022-12-13T03:44:08;35.70;;;23.83;;
55112;SDS011;41006;50.920;3.456;2022-12-13T03:44:39;37.42;;;24.52;;
55112;SDS011;41006;50.920;3.456;2022-12-13T03:45:10;38.35;;;24.10;;
55112;SDS011;41006;50.920;3.456;2022-12-13T03:45:40;39.78;;;25.17;;
55112;SDS011;41006;50.920;3.456;2022-12-13T03:46:11;36.25;;;24.45;;
55112;SDS011;41006;50.920;3.456;2022-12-13T03:46:44;39.50;;;23.80;;
55112;SDS011;41006;50.920;3.456;2022-12-13T03:47:18;36.05;;;22.88;;
55112;SDS011;41006;50.920;3.456;2022-12-13T03:47:51;35.53;;;22.52;;
55112;SDS011;41006;50.920;3.456;2022-12-13T03:48:24;33.35;;;22.10;;
55112;SDS011;41006;50.920;3.456;2022-12-13T03:48:59;35.70;;;22.15;;
55112;SDS011;41006;50.920;3.456;2022-12-13T03:49:30;35.05;;;22.48;;